sensor_id;sensor_type;location;lat;lon;timestamp;P1;durP1;ratioP1;P2;durP2;ratioP2
34405;SDS011;20658;45.630;8.886;2023-04-12T00:02:30;14.35;;;5.35;;
34405;SDS011;20658;45.630;8.886;2023-04-12T00:05:07;11.30;;;6.07;;
34405;SDS011;20658;45.630;8.886;2023-04-12T00:07:41;13.07;;;6.75;;
34405;SDS011;20658;45.630;8.886;2023-04-12T00:10:17;11.48;;;6.38;;
34405;SDS011;20658;45.630;8.886;2023-04-12T00:12:51;12.57;;;6.00;;
34405;SDS011;20658;45.630;8.886;2023-04-12T00:15:24;13.63;;;5.93;;
34405;SDS011;20658;45.630;8.886;2023-04-12T00:17:57;10.43;;;5.25;;
34405;SDS011;20658;45.630;8.886;2023-04-12T00:20:32;12.15;;;5.93;;
34405;SDS011;20658;45.630;8.886;2023-04-12T00:23:05;13.85;;;6.07;;
34405;SDS011;20658;45.630;8.886;2023-04-12T00:25:40;12.00;;;4.90;;
34405;SDS011;20658;45.630;8.886;2023-04-12T00:28:08;11.77;;;4.85;;
34405;SDS011;20658;45.630;8.886;2023-04-12T00:30:42;10.25;;;5.65;;
34405;SDS011;20658;45.630;8.886;2023-04-12T00:33:16;11.40;;;5.45;;
34405;SDS011;20658;45.630;8.886;2023-04-12T00:35:50;14.10;;;5.50;;
34405;SDS011;20658;45.630;8.886;2023-04-12T00:38:24;10.57;;;5.43;;
34405;SDS011;20658;45.630;8.886;2023-04-12T00:40:57;12.65;;;5.43;;
34405;SDS011;20658;45.630;8.886;2023-04-12T00:43:31;13.80;;;5.53;;
34405;SDS011;20658;45.630;8.886;2023-04-12T00:46:05;14.35;;;5.53;;
34405;SDS011;20658;45.630;8.886;2023-04-12T00:48:39;9.63;;;5.15;;
34405;SDS011;20658;45.630;8.886;2023-04-12T00:51:14;13.15;;;8.05;;
34405;SDS011;20658;45.630;8.886;2023-04-12T00:53:48;13.23;;;7.70;;
34405;SDS011;20658;45.630;8.886;2023-04-12T00:56:21;15.88;;;8.63;;
34405;SDS011;20658;45.630;8.886;2023-04-12T00:58:58;16.38;;;10.10;;
34405;SDS011;20658;45.630;8.886;2023-04-12T01:01:27;18.38;;;9.55;;
34405;SDS011;20658;45.630;8.886;2023-04-12T01:04:02;16.63;;;7.50;;
34405;SDS011;20658;45.630;8.886;2023-04-12T01:06:36;16.65;;;8.30;;
34405;SDS011;20658;45.630;8.886;2023-04-12T01:09:28;18.00;;;7.47;;
34405;SDS011;20658;45.630;8.886;2023-04-12T01:12:06;18.90;;;8.32;;
34405;SDS011;20658;45.630;8.886;2023-04-12T01:14:42;12.70;;;7.32;;
34405;SDS011;20658;45.630;8.886;2023-04-12T01:17:27;13.88;;;7.57;;
34405;SDS011;20658;45.630;8.886;2023-04-12T01:20:03;18.48;;;7.72;;
34405;SDS011;20658;45.630;8.886;2023-04-12T01:22:48;14.70;;;7.70;;
34405;SDS011;20658;45.630;8.886;2023-04-12T01:25:50;11.88;;;6.78;;
34405;SDS011;20658;45.630;8.886;2023-04-12T01:28:45;20.40;;;8.30;;
34405;SDS011;20658;45.630;8.886;2023-04-12T01:31:21;15.73;;;8.38;;
34405;SDS011;20658;45.630;8.886;2023-04-12T01:33:56;15.57;;;8.57;;
34405;SDS011;20658;45.630;8.886;2023-04-12T01:36:25;17.30;;;7.82;;
34405;SDS011;20658;45.630;8.886;2023-04-12T01:39:01;16.77;;;8.02;;
34405;SDS011;20658;45.630;8.886;2023-04-12T01:41:37;15.45;;;7.90;;
34405;SDS011;20658;45.630;8.886;2023-04-12T01:44:17;16.48;;;9.05;;
34405;SDS011;20658;45.630;8.886;2023-04-12T01:46:50;18.42;;;8.75;;
34405;SDS011;20658;45.630;8.886;2023-04-12T01:49:24;16.33;;;8.18;;
34405;SDS011;20658;45.630;8.886;2023-04-12T01:52:09;15.32;;;7.93;;
34405;SDS011;20658;45.630;8.886;2023-04-12T01:54:48;15.20;;;7.90;;
34405;SDS011;20658;45.630;8.886;2023-04-12T01:57:25;16.48;;;8.70;;
34405;SDS011;20658;45.630;8.886;2023-04-12T01:59:55;19.45;;;9.05;;
34405;SDS011;20658;45.630;8.886;2023-04-12T02:02:38;16.38;;;7.53;;
34405;SDS011;20658;45.630;8.886;2023-04-12T02:05:12;17.13;;;8.32;;
34405;SDS011;20658;45.630;8.886;2023-04-12T02:07:46;15.13;;;8.73;;
34405;SDS011;20658;45.630;8.886;2023-04-12T02:10:28;16.60;;;8.98;;
34405;SDS011;20658;45.630;8.886;2023-04-12T02:13:01;12.05;;;7.30;;
34405;SDS011;20658;45.630;8.886;2023-04-12T02:15:36;14.02;;;8.00;;
34405;SDS011;20658;45.630;8.886;2023-04-12T02:18:10;15.05;;;7.80;;
34405;SDS011;20658;45.630;8.886;2023-04-12T02:20:48;12.60;;;7.35;;
34405;SDS011;20658;45.630;8.886;2023-04-12T02:23:21;16.75;;;8.18;;
34405;SDS011;20658;45.630;8.886;2023-04-12T02:25:54;14.93;;;7.32;;
34405;SDS011;20658;45.630;8.886;2023-04-12T02:28:22;15.25;;;8.43;;
34405;SDS011;20658;45.630;8.886;2023-04-12T02:30:57;13.98;;;7.90;;
34405;SDS011;20658;45.630;8.886;2023-04-12T02:33:31;12.73;;;7.75;;
34405;SDS011;20658;45.630;8.886;2023-04-12T02:36:08;11.85;;;8.18;;
34405;SDS011;20658;45.630;8.886;2023-04-12T02:38:41;15.38;;;7.50;;
34405;SDS011;20658;45.630;8.886;2023-04-12T02:41:16;20.05;;;7.25;;
34405;SDS011;20658;45.630;8.886;2023-04-12T02:43:50;16.33;;;8.68;;
34405;SDS011;20658;45.630;8.886;2023-04-12T02:46:24;14.23;;;8.23;;
34405;SDS011;20658;45.630;8.886;2023-04-12T02:48:58;14.57;;;8.52;;
34405;SDS011;20658;45.630;8.886;2023-04-12T02:51:36;15.45;;;7.55;;
34405;SDS011;20658;45.630;8.886;2023-04-12T02:54:10;16.85;;;8.43;;
34405;SDS011;20658;45.630;8.886;2023-04-12T02:56:53;19.10;;;9.35;;
34405;SDS011;20658;45.630;8.886;2023-04-12T02:59:38;16.10;;;9.32;;
34405;SDS011;20658;45.630;8.886;2023-04-12T03:02:22;19.60;;;10.80;;
34405;SDS011;20658;45.630;8.886;2023-04-12T03:05:00;15.65;;;9.75;;
34405;SDS011;20658;45.630;8.886;2023-04-12T03:07:38;17.83;;;8.98;;
34405;SDS011;20658;45.630;8.886;2023-04-12T03:10:13;16.35;;;10.48;;
34405;SDS011;20658;45.630;8.886;2023-04-12T03:12:54;19.13;;;10.85;;
34405;SDS011;20658;45.630;8.886;2023-04-12T03:15:35;15.63;;;9.93;;
34405;SDS011;20658;45.630;8.886;2023-04-12T03:18:10;17.40;;;10.65;;
34405;SDS011;20658;45.630;8.886;2023-04-12T03:20:46;16.23;;;10.13;;
34405;SDS011;20658;45.630;8.886;2023-04-12T03:23:20;17.98;;;10.73;;
34405;SDS011;20658;45.630;8.886;2023-04-12T03:26:11;15.65;;;9.55;;
34405;SDS011;20658;45.630;8.886;2023-04-12T03:28:57;17.77;;;10.85;;
34405;SDS011;20658;45.630;8.886;2023-04-12T03:31:36;17.92;;;9.45;;
34405;SDS011;20658;45.630;8.886;2023-04-12T03:34:11;18.13;;;10.50;;
34405;SDS011;20658;45.630;8.886;2023-04-12T03:36:48;21.80;;;10.85;;
34405;SDS011;20658;45.630;8.886;2023-04-12T03:39:35;19.67;;;11.32;;
34405;SDS011;20658;45.630;8.886;2023-04-12T03:42:06;18.88;;;12.27;;
34405;SDS011;20658;45.630;8.886;2023-04-12T03:44:40;18.63;;;11.68;;
34405;SDS011;20658;45.630;8.886;2023-04-12T03:47:14;19.13;;;10.70;;
34405;SDS011;20658;45.630;8.886;2023-04-12T03:49:49;29.13;;;13.10;;
34405;SDS011;20658;45.630;8.886;2023-04-12T03:52:25;20.40;;;11.40;;
34405;SDS011;20658;45.630;8.886;2023-04-12T03:54:58;17.15;;;11.65;;
34405;SDS011;20658;45.630;8.886;2023-04-12T03:57:32;20.83;;;11.50;;
34405;SDS011;20658;45.630;8.886;2023-04-12T04:00:06;18.67;;;11.88;;
34405;SDS011;20658;45.630;8.886;2023-04-12T04:02:59;21.70;;;12.63;;
34405;SDS011;20658;45.630;8.886;2023-04-12T04:05:42;22.15;;;12.57;;
34405;SDS011;20658;45.630;8.886;2023-04-12T04:08:18;22.40;;;13.68;;
34405;SDS011;20658;45.630;8.886;2023-04-12T04:10:52;23.02;;;14.20;;
34405;SDS011;20658;45.630;8.886;2023-04-12T04:13:31;20.55;;;13.35;;
34405;SDS011;20658;45.630;8.886;2023-04-12T04:16:07;24.45;;;14.65;;
34405;SDS011;20658;45.630;8.886;2023-04-12T04:18:41;21.98;;;14.32;;
34405;SDS011;20658;45.630;8.886;2023-04-12T04:21:19;24.48;;;14.05;;
34405;SDS011;20658;45.630;8.886;2023-04-12T04:23:55;20.98;;;14.98;;
34405;SDS011;20658;45.630;8.886;2023-04-12T04:26:28;23.10;;;15.40;;
34405;SDS011;20658;45.630;8.886;2023-04-12T04:29:15;26.50;;;16.10;;
34405;SDS011;20658;45.630;8.886;2023-04-12T04:31:49;25.67;;;16.48;;
34405;SDS011;20658;45.630;8.886;2023-04-12T04:34:24;25.05;;;17.13;;
34405;SDS011;20658;45.630;8.886;2023-04-12T04:37:09;28.42;;;17.15;;
34405;SDS011;20658;45.630;8.886;2023-04-12T04:39:44;27.13;;;17.27;;
34405;SDS011;20658;45.630;8.886;2023-04-12T04:42:17;24.10;;;16.45;;
34405;SDS011;20658;45.630;8.886;2023-04-12T04:44:57;24.85;;;16.92;;
34405;SDS011;20658;45.630;8.886;2023-04-12T04:47:43;26.05;;;18.50;;
34405;SDS011;20658;45.630;8.886;2023-04-12T04:50:16;30.25;;;18.17;;
34405;SDS011;20658;45.630;8.886;2023-04-12T04:52:53;26.42;;;17.27;;
34405;SDS011;20658;45.630;8.886;2023-04-12T04:55:27;28.75;;;16.25;;
34405;SDS011;20658;45.630;8.886;2023-04-12T04:58:01;24.63;;;17.70;;
34405;SDS011;20658;45.630;8.886;2023-04-12T05:00:34;25.30;;;17.30;;
34405;SDS011;20658;45.630;8.886;2023-04-12T05:03:10;25.95;;;17.58;;
34405;SDS011;20658;45.630;8.886;2023-04-12T05:05:43;25.27;;;16.60;;
34405;SDS011;20658;45.630;8.886;2023-04-12T05:08:21;28.08;;;18.77;;
34405;SDS011;20658;45.630;8.886;2023-04-12T05:10:55;31.70;;;18.23;;
34405;SDS011;20658;45.630;8.886;2023-04-12T05:13:29;30.33;;;18.33;;
34405;SDS011;20658;45.630;8.886;2023-04-12T05:16:04;29.70;;;17.50;;
34405;SDS011;20658;45.630;8.886;2023-04-12T05:18:39;26.27;;;16.98;;
34405;SDS011;20658;45.630;8.886;2023-04-12T05:21:12;25.80;;;16.00;;
34405;SDS011;20658;45.630;8.886;2023-04-12T05:23:47;23.63;;;14.98;;
34405;SDS011;20658;45.630;8.886;2023-04-12T05:26:20;25.02;;;14.15;;
34405;SDS011;20658;45.630;8.886;2023-04-12T05:28:56;23.48;;;13.05;;
34405;SDS011;20658;45.630;8.886;2023-04-12T05:31:31;27.35;;;14.23;;
34405;SDS011;20658;45.630;8.886;2023-04-12T05:34:09;23.95;;;13.73;;
34405;SDS011;20658;45.630;8.886;2023-04-12T05:36:50;25.35;;;13.30;;
34405;SDS011;20658;45.630;8.886;2023-04-12T05:39:20;24.05;;;13.00;;
34405;SDS011;20658;45.630;8.886;2023-04-12T05:41:54;28.27;;;13.63;;
34405;SDS011;20658;45.630;8.886;2023-04-12T05:44:27;27.30;;;13.05;;
34405;SDS011;20658;45.630;8.886;2023-04-12T05:46:55;25.90;;;14.70;;
34405;SDS011;20658;45.630;8.886;2023-04-12T05:49:29;29.77;;;16.40;;
34405;SDS011;20658;45.630;8.886;2023-04-12T05:52:06;26.15;;;15.10;;
34405;SDS011;20658;45.630;8.886;2023-04-12T05:54:41;25.52;;;16.33;;
34405;SDS011;20658;45.630;8.886;2023-04-12T05:57:15;29.90;;;18.25;;
34405;SDS011;20658;45.630;8.886;2023-04-12T05:59:49;25.95;;;16.42;;
34405;SDS011;20658;45.630;8.886;2023-04-12T06:02:22;26.10;;;15.20;;
34405;SDS011;20658;45.630;8.886;2023-04-12T06:04:56;25.52;;;14.82;;
34405;SDS011;20658;45.630;8.886;2023-04-12T06:07:29;37.53;;;15.07;;
34405;SDS011;20658;45.630;8.886;2023-04-12T06:10:05;27.00;;;15.52;;
34405;SDS011;20658;45.630;8.886;2023-04-12T06:12:35;28.65;;;14.20;;
34405;SDS011;20658;45.630;8.886;2023-04-12T06:15:08;26.80;;;14.02;;
34405;SDS011;20658;45.630;8.886;2023-04-12T06:17:42;29.73;;;14.95;;
34405;SDS011;20658;45.630;8.886;2023-04-12T06:20:16;26.58;;;14.00;;
34405;SDS011;20658;45.630;8.886;2023-04-12T06:22:50;26.15;;;14.77;;
34405;SDS011;20658;45.630;8.886;2023-04-12T06:25:20;26.50;;;14.93;;
34405;SDS011;20658;45.630;8.886;2023-04-12T06:27:56;25.58;;;14.20;;
34405;SDS011;20658;45.630;8.886;2023-04-12T06:30:31;28.48;;;15.32;;
34405;SDS011;20658;45.630;8.886;2023-04-12T06:33:04;29.83;;;15.40;;
34405;SDS011;20658;45.630;8.886;2023-04-12T06:35:38;27.58;;;15.05;;
34405;SDS011;20658;45.630;8.886;2023-04-12T06:38:07;29.38;;;15.80;;
34405;SDS011;20658;45.630;8.886;2023-04-12T06:40:41;27.98;;;15.35;;
34405;SDS011;20658;45.630;8.886;2023-04-12T06:43:15;33.65;;;15.13;;
34405;SDS011;20658;45.630;8.886;2023-04-12T06:45:50;28.15;;;15.68;;
34405;SDS011;20658;45.630;8.886;2023-04-12T06:48:23;28.27;;;14.93;;
34405;SDS011;20658;45.630;8.886;2023-04-12T06:50:57;27.13;;;15.05;;
34405;SDS011;20658;45.630;8.886;2023-04-12T06:53:30;28.45;;;14.82;;
34405;SDS011;20658;45.630;8.886;2023-04-12T06:56:07;28.98;;;15.25;;
34405;SDS011;20658;45.630;8.886;2023-04-12T06:58:40;28.25;;;15.63;;
34405;SDS011;20658;45.630;8.886;2023-04-12T07:01:13;29.45;;;15.07;;
34405;SDS011;20658;45.630;8.886;2023-04-12T07:03:47;37.42;;;16.58;;
34405;SDS011;20658;45.630;8.886;2023-04-12T07:06:21;28.00;;;16.02;;
34405;SDS011;20658;45.630;8.886;2023-04-12T07:08:54;29.33;;;14.98;;
34405;SDS011;20658;45.630;8.886;2023-04-12T07:11:28;31.42;;;15.45;;
34405;SDS011;20658;45.630;8.886;2023-04-12T07:14:02;29.55;;;14.75;;
34405;SDS011;20658;45.630;8.886;2023-04-12T07:16:35;31.60;;;15.95;;
34405;SDS011;20658;45.630;8.886;2023-04-12T07:19:03;33.63;;;16.48;;
34405;SDS011;20658;45.630;8.886;2023-04-12T07:21:36;28.90;;;15.15;;
34405;SDS011;20658;45.630;8.886;2023-04-12T07:24:10;34.33;;;16.02;;
34405;SDS011;20658;45.630;8.886;2023-04-12T07:26:44;31.52;;;15.85;;
34405;SDS011;20658;45.630;8.886;2023-04-12T07:29:18;29.73;;;13.70;;
34405;SDS011;20658;45.630;8.886;2023-04-12T07:31:51;30.90;;;15.95;;
34405;SDS011;20658;45.630;8.886;2023-04-12T07:34:24;28.20;;;14.35;;
34405;SDS011;20658;45.630;8.886;2023-04-12T07:36:57;26.08;;;13.57;;
34405;SDS011;20658;45.630;8.886;2023-04-12T07:39:31;25.65;;;13.70;;
34405;SDS011;20658;45.630;8.886;2023-04-12T07:42:06;25.80;;;13.50;;
34405;SDS011;20658;45.630;8.886;2023-04-12T07:44:40;29.15;;;15.10;;
34405;SDS011;20658;45.630;8.886;2023-04-12T07:47:13;34.08;;;15.18;;
34405;SDS011;20658;45.630;8.886;2023-04-12T07:49:46;26.85;;;12.88;;
34405;SDS011;20658;45.630;8.886;2023-04-12T07:52:20;26.35;;;15.60;;
34405;SDS011;20658;45.630;8.886;2023-04-12T07:54:53;24.63;;;14.45;;
34405;SDS011;20658;45.630;8.886;2023-04-12T07:57:28;25.17;;;13.90;;
34405;SDS011;20658;45.630;8.886;2023-04-12T08:00:01;28.13;;;14.48;;
34405;SDS011;20658;45.630;8.886;2023-04-12T08:02:38;26.23;;;15.02;;
34405;SDS011;20658;45.630;8.886;2023-04-12T08:05:12;26.55;;;13.40;;
34405;SDS011;20658;45.630;8.886;2023-04-12T08:07:45;25.88;;;13.40;;
34405;SDS011;20658;45.630;8.886;2023-04-12T08:10:18;27.15;;;13.88;;
34405;SDS011;20658;45.630;8.886;2023-04-12T08:12:53;25.85;;;13.25;;
34405;SDS011;20658;45.630;8.886;2023-04-12T08:15:26;28.95;;;14.10;;
34405;SDS011;20658;45.630;8.886;2023-04-12T08:17:59;25.95;;;12.55;;
34405;SDS011;20658;45.630;8.886;2023-04-12T08:20:33;32.63;;;13.48;;
34405;SDS011;20658;45.630;8.886;2023-04-12T08:23:06;26.40;;;13.07;;
34405;SDS011;20658;45.630;8.886;2023-04-12T08:25:40;24.33;;;12.65;;
34405;SDS011;20658;45.630;8.886;2023-04-12T08:28:14;33.42;;;14.30;;
34405;SDS011;20658;45.630;8.886;2023-04-12T08:30:48;26.10;;;13.45;;
34405;SDS011;20658;45.630;8.886;2023-04-12T08:33:21;24.25;;;12.65;;
34405;SDS011;20658;45.630;8.886;2023-04-12T08:35:54;24.33;;;12.38;;
34405;SDS011;20658;45.630;8.886;2023-04-12T08:38:27;23.17;;;13.25;;
34405;SDS011;20658;45.630;8.886;2023-04-12T08:41:02;27.17;;;13.30;;
34405;SDS011;20658;45.630;8.886;2023-04-12T08:43:38;23.02;;;12.57;;
34405;SDS011;20658;45.630;8.886;2023-04-12T08:46:16;27.55;;;13.43;;
34405;SDS011;20658;45.630;8.886;2023-04-12T08:48:50;26.75;;;13.80;;
34405;SDS011;20658;45.630;8.886;2023-04-12T08:51:25;25.23;;;13.80;;
34405;SDS011;20658;45.630;8.886;2023-04-12T08:53:58;26.63;;;13.80;;
34405;SDS011;20658;45.630;8.886;2023-04-12T08:56:32;24.52;;;13.20;;
34405;SDS011;20658;45.630;8.886;2023-04-12T08:59:07;25.65;;;13.05;;
34405;SDS011;20658;45.630;8.886;2023-04-12T09:01:41;29.65;;;12.43;;
34405;SDS011;20658;45.630;8.886;2023-04-12T09:04:10;27.23;;;13.50;;
34405;SDS011;20658;45.630;8.886;2023-04-12T09:06:43;23.58;;;13.18;;
34405;SDS011;20658;45.630;8.886;2023-04-12T09:09:16;27.08;;;12.38;;
34405;SDS011;20658;45.630;8.886;2023-04-12T09:11:50;25.00;;;11.75;;
34405;SDS011;20658;45.630;8.886;2023-04-12T09:14:24;22.35;;;11.65;;
34405;SDS011;20658;45.630;8.886;2023-04-12T09:16:58;28.42;;;13.00;;
34405;SDS011;20658;45.630;8.886;2023-04-12T09:19:31;28.58;;;13.73;;
34405;SDS011;20658;45.630;8.886;2023-04-12T09:22:01;23.05;;;12.13;;
34405;SDS011;20658;45.630;8.886;2023-04-12T09:24:43;22.33;;;12.57;;
34405;SDS011;20658;45.630;8.886;2023-04-12T09:27:18;22.48;;;11.82;;
34405;SDS011;20658;45.630;8.886;2023-04-12T09:29:53;23.55;;;12.38;;
34405;SDS011;20658;45.630;8.886;2023-04-12T09:32:39;23.23;;;11.77;;
34405;SDS011;20658;45.630;8.886;2023-04-12T09:35:12;20.23;;;10.93;;
34405;SDS011;20658;45.630;8.886;2023-04-12T09:37:46;23.83;;;11.73;;
34405;SDS011;20658;45.630;8.886;2023-04-12T09:40:29;25.08;;;13.85;;
34405;SDS011;20658;45.630;8.886;2023-04-12T09:43:06;22.55;;;11.30;;
34405;SDS011;20658;45.630;8.886;2023-04-12T09:45:36;22.63;;;11.77;;
34405;SDS011;20658;45.630;8.886;2023-04-12T09:48:17;24.42;;;12.15;;
34405;SDS011;20658;45.630;8.886;2023-04-12T09:50:47;26.23;;;13.63;;
34405;SDS011;20658;45.630;8.886;2023-04-12T09:53:16;27.33;;;12.70;;
34405;SDS011;20658;45.630;8.886;2023-04-12T09:55:49;28.40;;;13.65;;
34405;SDS011;20658;45.630;8.886;2023-04-12T09:58:23;24.08;;;12.48;;
34405;SDS011;20658;45.630;8.886;2023-04-12T10:01:00;24.90;;;11.73;;
34405;SDS011;20658;45.630;8.886;2023-04-12T10:03:34;23.83;;;12.60;;
34405;SDS011;20658;45.630;8.886;2023-04-12T10:06:09;27.67;;;12.80;;
34405;SDS011;20658;45.630;8.886;2023-04-12T10:08:43;24.83;;;12.38;;
34405;SDS011;20658;45.630;8.886;2023-04-12T10:11:18;26.83;;;13.02;;
34405;SDS011;20658;45.630;8.886;2023-04-12T10:13:51;23.15;;;12.40;;
34405;SDS011;20658;45.630;8.886;2023-04-12T10:16:26;23.35;;;10.80;;
34405;SDS011;20658;45.630;8.886;2023-04-12T10:18:54;31.67;;;12.43;;
34405;SDS011;20658;45.630;8.886;2023-04-12T10:21:28;25.63;;;12.50;;
34405;SDS011;20658;45.630;8.886;2023-04-12T10:24:01;21.88;;;11.57;;
34405;SDS011;20658;45.630;8.886;2023-04-12T10:26:39;20.75;;;11.48;;
34405;SDS011;20658;45.630;8.886;2023-04-12T10:29:23;21.25;;;10.63;;
34405;SDS011;20658;45.630;8.886;2023-04-12T10:32:17;22.85;;;11.10;;
34405;SDS011;20658;45.630;8.886;2023-04-12T10:34:57;25.63;;;12.05;;
34405;SDS011;20658;45.630;8.886;2023-04-12T10:40:27;21.48;;;11.88;;
34405;SDS011;20658;45.630;8.886;2023-04-12T10:45:58;22.98;;;12.43;;
34405;SDS011;20658;45.630;8.886;2023-04-12T10:48:36;29.83;;;12.68;;
34405;SDS011;20658;45.630;8.886;2023-04-12T10:51:11;24.63;;;12.27;;
34405;SDS011;20658;45.630;8.886;2023-04-12T10:53:48;20.33;;;11.57;;
34405;SDS011;20658;45.630;8.886;2023-04-12T10:56:33;29.58;;;12.30;;
34405;SDS011;20658;45.630;8.886;2023-04-12T10:59:24;23.15;;;12.77;;
34405;SDS011;20658;45.630;8.886;2023-04-12T11:02:07;24.35;;;12.15;;
34405;SDS011;20658;45.630;8.886;2023-04-12T11:05:05;25.10;;;12.02;;
34405;SDS011;20658;45.630;8.886;2023-04-12T11:08:06;24.40;;;11.85;;
34405;SDS011;20658;45.630;8.886;2023-04-12T11:10:48;22.55;;;12.32;;
34405;SDS011;20658;45.630;8.886;2023-04-12T11:13:33;22.47;;;11.53;;
34405;SDS011;20658;45.630;8.886;2023-04-12T11:16:07;22.48;;;11.50;;
34405;SDS011;20658;45.630;8.886;2023-04-12T11:18:45;22.70;;;12.68;;
34405;SDS011;20658;45.630;8.886;2023-04-12T11:21:19;27.77;;;13.02;;
34405;SDS011;20658;45.630;8.886;2023-04-12T11:23:49;21.30;;;11.57;;
34405;SDS011;20658;45.630;8.886;2023-04-12T11:26:25;23.27;;;13.30;;
34405;SDS011;20658;45.630;8.886;2023-04-12T11:29:05;23.25;;;12.48;;
34405;SDS011;20658;45.630;8.886;2023-04-12T11:31:39;30.20;;;13.00;;
34405;SDS011;20658;45.630;8.886;2023-04-12T11:34:12;24.98;;;12.90;;
34405;SDS011;20658;45.630;8.886;2023-04-12T11:36:51;19.25;;;11.40;;
34405;SDS011;20658;45.630;8.886;2023-04-12T11:39:26;24.02;;;13.25;;
34405;SDS011;20658;45.630;8.886;2023-04-12T11:41:59;25.17;;;12.90;;
34405;SDS011;20658;45.630;8.886;2023-04-12T11:44:34;23.73;;;12.38;;
34405;SDS011;20658;45.630;8.886;2023-04-12T11:47:12;21.63;;;12.30;;
34405;SDS011;20658;45.630;8.886;2023-04-12T11:49:49;22.85;;;11.80;;
34405;SDS011;20658;45.630;8.886;2023-04-12T11:52:22;24.05;;;13.55;;
34405;SDS011;20658;45.630;8.886;2023-04-12T11:55:01;22.53;;;12.03;;
34405;SDS011;20658;45.630;8.886;2023-04-12T11:57:31;24.90;;;12.73;;
34405;SDS011;20658;45.630;8.886;2023-04-12T12:00:06;24.50;;;11.93;;
34405;SDS011;20658;45.630;8.886;2023-04-12T12:02:41;20.77;;;11.52;;
34405;SDS011;20658;45.630;8.886;2023-04-12T12:05:15;24.35;;;11.93;;
34405;SDS011;20658;45.630;8.886;2023-04-12T12:07:49;21.35;;;11.13;;
34405;SDS011;20658;45.630;8.886;2023-04-12T12:10:24;19.67;;;11.43;;
34405;SDS011;20658;45.630;8.886;2023-04-12T12:12:57;17.55;;;10.52;;
34405;SDS011;20658;45.630;8.886;2023-04-12T12:15:31;24.35;;;12.57;;
34405;SDS011;20658;45.630;8.886;2023-04-12T12:18:06;26.25;;;12.60;;
34405;SDS011;20658;45.630;8.886;2023-04-12T12:20:38;30.80;;;12.77;;
34405;SDS011;20658;45.630;8.886;2023-04-12T12:23:27;19.20;;;12.73;;
34405;SDS011;20658;45.630;8.886;2023-04-12T12:26:01;19.05;;;11.30;;
34405;SDS011;20658;45.630;8.886;2023-04-12T12:28:40;20.23;;;11.27;;
34405;SDS011;20658;45.630;8.886;2023-04-12T12:31:13;24.20;;;13.15;;
34405;SDS011;20658;45.630;8.886;2023-04-12T12:33:52;21.38;;;11.45;;
34405;SDS011;20658;45.630;8.886;2023-04-12T12:36:30;20.02;;;12.25;;
34405;SDS011;20658;45.630;8.886;2023-04-12T12:39:06;21.58;;;12.23;;
34405;SDS011;20658;45.630;8.886;2023-04-12T12:41:41;23.45;;;13.35;;
34405;SDS011;20658;45.630;8.886;2023-04-12T12:44:14;24.42;;;13.43;;
34405;SDS011;20658;45.630;8.886;2023-04-12T12:46:47;20.67;;;11.70;;
34405;SDS011;20658;45.630;8.886;2023-04-12T12:49:21;17.42;;;10.15;;
34405;SDS011;20658;45.630;8.886;2023-04-12T12:51:54;18.70;;;10.65;;
34405;SDS011;20658;45.630;8.886;2023-04-12T12:54:29;17.63;;;9.88;;
34405;SDS011;20658;45.630;8.886;2023-04-12T12:57:03;19.63;;;10.48;;
34405;SDS011;20658;45.630;8.886;2023-04-12T12:59:31;18.90;;;10.55;;
34405;SDS011;20658;45.630;8.886;2023-04-12T13:02:04;15.77;;;9.75;;
34405;SDS011;20658;45.630;8.886;2023-04-12T13:04:38;18.83;;;10.73;;
34405;SDS011;20658;45.630;8.886;2023-04-12T13:07:11;19.52;;;12.00;;
34405;SDS011;20658;45.630;8.886;2023-04-12T13:09:46;21.70;;;11.77;;
34405;SDS011;20658;45.630;8.886;2023-04-12T13:12:19;21.80;;;10.13;;
34405;SDS011;20658;45.630;8.886;2023-04-12T13:14:57;18.40;;;10.73;;
34405;SDS011;20658;45.630;8.886;2023-04-12T13:17:26;19.13;;;11.00;;
34405;SDS011;20658;45.630;8.886;2023-04-12T13:19:59;19.05;;;10.88;;
34405;SDS011;20658;45.630;8.886;2023-04-12T13:22:34;17.92;;;9.85;;
34405;SDS011;20658;45.630;8.886;2023-04-12T13:25:09;18.05;;;9.75;;
34405;SDS011;20658;45.630;8.886;2023-04-12T13:27:42;22.73;;;10.90;;
34405;SDS011;20658;45.630;8.886;2023-04-12T13:30:16;17.65;;;9.80;;
34405;SDS011;20658;45.630;8.886;2023-04-12T13:32:50;22.75;;;10.35;;
34405;SDS011;20658;45.630;8.886;2023-04-12T13:35:25;18.15;;;10.20;;
34405;SDS011;20658;45.630;8.886;2023-04-12T13:37:58;19.83;;;9.55;;
34405;SDS011;20658;45.630;8.886;2023-04-12T13:40:30;18.33;;;10.48;;
34405;SDS011;20658;45.630;8.886;2023-04-12T13:43:03;24.67;;;10.25;;
34405;SDS011;20658;45.630;8.886;2023-04-12T13:45:37;20.23;;;10.82;;
34405;SDS011;20658;45.630;8.886;2023-04-12T13:48:11;18.48;;;10.43;;
34405;SDS011;20658;45.630;8.886;2023-04-12T13:50:44;16.45;;;10.25;;
34405;SDS011;20658;45.630;8.886;2023-04-12T13:53:17;21.48;;;10.88;;
34405;SDS011;20658;45.630;8.886;2023-04-12T13:55:52;20.83;;;10.45;;
34405;SDS011;20658;45.630;8.886;2023-04-12T13:58:20;34.38;;;29.80;;
34405;SDS011;20658;45.630;8.886;2023-04-12T14:00:53;22.00;;;14.25;;
34405;SDS011;20658;45.630;8.886;2023-04-12T14:03:30;20.00;;;11.32;;
34405;SDS011;20658;45.630;8.886;2023-04-12T14:06:04;19.08;;;11.38;;
34405;SDS011;20658;45.630;8.886;2023-04-12T14:08:38;24.88;;;13.20;;
34405;SDS011;20658;45.630;8.886;2023-04-12T14:11:12;29.65;;;18.45;;
34405;SDS011;20658;45.630;8.886;2023-04-12T14:13:48;23.33;;;11.88;;
34405;SDS011;20658;45.630;8.886;2023-04-12T14:16:22;44.13;;;14.82;;
34405;SDS011;20658;45.630;8.886;2023-04-12T14:18:55;23.13;;;13.40;;
34405;SDS011;20658;45.630;8.886;2023-04-12T14:21:28;19.35;;;13.07;;
34405;SDS011;20658;45.630;8.886;2023-04-12T14:24:02;22.13;;;13.65;;
34405;SDS011;20658;45.630;8.886;2023-04-12T14:26:36;19.30;;;12.35;;
34405;SDS011;20658;45.630;8.886;2023-04-12T14:29:11;25.85;;;13.02;;
34405;SDS011;20658;45.630;8.886;2023-04-12T14:31:45;28.17;;;13.00;;
34405;SDS011;20658;45.630;8.886;2023-04-12T14:34:18;22.23;;;12.30;;
34405;SDS011;20658;45.630;8.886;2023-04-12T14:36:52;24.23;;;13.23;;
34405;SDS011;20658;45.630;8.886;2023-04-12T14:39:26;20.92;;;12.80;;
34405;SDS011;20658;45.630;8.886;2023-04-12T14:42:02;23.38;;;14.80;;
34405;SDS011;20658;45.630;8.886;2023-04-12T14:44:36;24.50;;;13.15;;
34405;SDS011;20658;45.630;8.886;2023-04-12T14:47:09;21.35;;;12.32;;
34405;SDS011;20658;45.630;8.886;2023-04-12T14:49:43;22.13;;;14.82;;
34405;SDS011;20658;45.630;8.886;2023-04-12T14:52:16;24.13;;;13.43;;
34405;SDS011;20658;45.630;8.886;2023-04-12T14:54:50;20.38;;;12.07;;
34405;SDS011;20658;45.630;8.886;2023-04-12T14:57:24;22.63;;;13.23;;
34405;SDS011;20658;45.630;8.886;2023-04-12T14:59:58;22.08;;;13.30;;
34405;SDS011;20658;45.630;8.886;2023-04-12T15:02:26;23.25;;;14.05;;
34405;SDS011;20658;45.630;8.886;2023-04-12T15:04:59;23.05;;;16.02;;
34405;SDS011;20658;45.630;8.886;2023-04-12T15:07:37;24.27;;;15.15;;
34405;SDS011;20658;45.630;8.886;2023-04-12T15:10:11;23.90;;;13.77;;
34405;SDS011;20658;45.630;8.886;2023-04-12T15:12:48;22.10;;;13.43;;
34405;SDS011;20658;45.630;8.886;2023-04-12T15:15:21;26.60;;;13.25;;
34405;SDS011;20658;45.630;8.886;2023-04-12T15:17:54;23.05;;;13.75;;